Check out our new BloomSky Weather System.

Active alerts

Houston, TX
  Details for Houston, TX Dense Fog Advisory


Thunder radar  blitzortung!


Rain radar more information rain snow radar


Visit our other weather sites:

Template documentation
and downloads

And another site



Weather Underground History page Text

Daily Summary for June 13, 2017 Units:  Metric    English   Both
« Previous Day
Next Day »
Daily Weekly Monthly Yearly Custom
  High: Low: Average:
Temperature: 32.8 °C 25.7 °C 28.8 °C
Dew Point: 27 °C 23.4 °C 24.8 °C
Humidity: 93 % 58 % 80 %
Wind Speed: 22.5 km/h 0 km/h 8.2 km/h
Wind Gust: 29 km/h - -
Wind:- - SE
Pressure: 1013.8 hPa 1011.1 hPa -
Precipitation: 2.03 mm    
Historical Graphs
 
 
Tabular Data for June 13, 2017
Time Temperature Dew Point Pressure Wind Wind Speed Wind Gust Humidity Rainfall Rate (Hourly)
00:01 27.2 °C 25.2 °C 1012.8 hPa ESE 4.8 km/h 16.1 km/h 89 % 0 mm
00:06 26.9 °C 24.5 °C 1012.8 hPa SE 8 km/h 16.1 km/h 87 % 0 mm
00:11 26.7 °C 24.5 °C 1013.1 hPa SE 3.2 km/h 16.1 km/h 88 % 0 mm
00:16 26.5 °C 24.5 °C 1012.8 hPa ESE 4.8 km/h 16.1 km/h 89 % 0 mm
00:21 26.4 °C 24.4 °C 1013.1 hPa SSE 3.2 km/h 16.1 km/h 89 % 0 mm
00:26 26.3 °C 24.3 °C 1012.8 hPa SSE 3.2 km/h 12.9 km/h 89 % 0 mm
00:31 26.3 °C 24.3 °C 1013.1 hPa SE 4.8 km/h 8 km/h 89 % 0 mm
00:36 26.3 °C 24.3 °C 1012.8 hPa SE 4.8 km/h 11.3 km/h 89 % 0 mm
00:41 26.2 °C 24.2 °C 1012.8 hPa ESE 8 km/h 12.9 km/h 89 % 0 mm
00:46 26.2 °C 24.2 °C 1012.8 hPa SE 3.2 km/h 14.5 km/h 89 % 0 mm
00:51 26.1 °C 24.1 °C 1012.8 hPa ESE 3.2 km/h 14.5 km/h 89 % 0 mm
00:56 26.1 °C 24.3 °C 1012.8 hPa ESE 4.8 km/h 14.5 km/h 90 % 0 mm
01:01 26 °C 24.2 °C 1012.8 hPa ESE 4.8 km/h 9.7 km/h 90 % 0 mm
01:06 25.9 °C 24.1 °C 1012.8 hPa SE 4.8 km/h 9.7 km/h 90 % 0 mm
01:11 25.9 °C 24.3 °C 1012.8 hPa SE 3.2 km/h 9.7 km/h 91 % 0 mm
01:16 25.9 °C 24.3 °C 1012.8 hPa South 1.6 km/h 9.7 km/h 91 % 0 mm
01:21 25.8 °C 24.2 °C 1012.8 hPa ESE 3.2 km/h 8 km/h 91 % 0 mm
01:26 25.8 °C 24.4 °C 1012.8 hPa SE 4.8 km/h 8 km/h 92 % 0 mm
01:31 25.8 °C 24.4 °C 1012.8 hPa ESE 4.8 km/h 8 km/h 92 % 0 mm
01:36 25.7 °C 24.3 °C 1012.8 hPa ESE 3.2 km/h 8 km/h 92 % 0 mm
01:41 25.7 °C 24.3 °C 1012.4 hPa South 6.4 km/h 8 km/h 92 % 0 mm
01:46 25.8 °C 24.6 °C 1012.4 hPa SE 6.4 km/h 8 km/h 93 % 0 mm
01:51 25.8 °C 24.6 °C 1012.4 hPa East 6.4 km/h 9.7 km/h 93 % 0 mm
01:56 25.8 °C 24.6 °C 1012.4 hPa SSE 3.2 km/h 9.7 km/h 93 % 0 mm
02:01 25.8 °C 24.6 °C 1012.4 hPa SSE 4.8 km/h 9.7 km/h 93 % 0 mm
02:06 25.8 °C 24.6 °C 1012.4 hPa SE 6.4 km/h 9.7 km/h 93 % 0 mm
02:11 25.9 °C 24.7 °C 1012.4 hPa SE 4.8 km/h 9.7 km/h 93 % 0 mm
02:16 25.9 °C 24.7 °C 1012.4 hPa ESE 4.8 km/h 12.9 km/h 93 % 0 mm
02:21 25.9 °C 24.7 °C 1012.4 hPa ESE 11.3 km/h 12.9 km/h 93 % 0 mm
02:26 25.9 °C 24.7 °C 1012.4 hPa SE 9.7 km/h 12.9 km/h 93 % 0 mm
02:31 25.9 °C 24.7 °C 1012.4 hPa SE 4.8 km/h 11.3 km/h 93 % 0 mm
02:36 25.9 °C 24.7 °C 1012.4 hPa SSE 4.8 km/h 11.3 km/h 93 % 0 mm
02:41 26 °C 24.8 °C 1012.1 hPa SE 3.2 km/h 12.9 km/h 93 % 0 mm
02:47 25.9 °C 24.7 °C 1012.1 hPa SSE 6.4 km/h 12.9 km/h 93 % 0 mm
02:51 25.9 °C 24.7 °C 1012.1 hPa SE 3.2 km/h 14.5 km/h 93 % 0 mm
02:56 25.9 °C 24.7 °C 1012.1 hPa SE 6.4 km/h 14.5 km/h 93 % 0 mm
03:01 25.9 °C 24.7 °C 1012.1 hPa SE 6.4 km/h 14.5 km/h 93 % 0 mm
03:06 25.9 °C 24.7 °C 1012.1 hPa ESE 3.2 km/h 12.9 km/h 93 % 0 mm
03:12 25.9 °C 24.7 °C 1012.1 hPa East 4.8 km/h 12.9 km/h 93 % 0 mm
03:17 25.9 °C 24.7 °C 1012.1 hPa SE 4.8 km/h 12.9 km/h 93 % 0 mm
03:22 25.9 °C 24.7 °C 1012.1 hPa SE 6.4 km/h 12.9 km/h 93 % 0 mm
03:27 25.9 °C 24.7 °C 1011.7 hPa East 8 km/h 12.9 km/h 93 % 0 mm
03:32 25.9 °C 24.7 °C 1011.7 hPa ESE 8 km/h 12.9 km/h 93 % 0 mm
03:37 25.9 °C 24.7 °C 1011.7 hPa South 6.4 km/h 12.9 km/h 93 % 0 mm
03:42 25.9 °C 24.7 °C 1011.7 hPa ESE 6.4 km/h 12.9 km/h 93 % 0 mm
03:47 25.8 °C 24.6 °C 1011.7 hPa ESE 4.8 km/h 11.3 km/h 93 % 0 mm
03:52 25.8 °C 24.6 °C 1011.7 hPa East 6.4 km/h 9.7 km/h 93 % 0 mm
03:57 25.8 °C 24.6 °C 1011.7 hPa SSE 3.2 km/h 11.3 km/h 93 % 0 mm
04:02 25.7 °C 24.5 °C 1011.7 hPa SE 3.2 km/h 11.3 km/h 93 % 0 mm
04:07 25.7 °C 24.5 °C 1011.7 hPa ESE 4.8 km/h 11.3 km/h 93 % 0 mm
04:12 25.7 °C 24.5 °C 1011.7 hPa SE 4.8 km/h 12.9 km/h 93 % 0 mm
04:17 25.8 °C 24.6 °C 1011.7 hPa SE 3.2 km/h 12.9 km/h 93 % 0 mm
04:22 25.8 °C 24.6 °C 1012.1 hPa SE 4.8 km/h 12.9 km/h 93 % 0 mm
04:27 25.9 °C 24.7 °C 1012.1 hPa SE 3.2 km/h 9.7 km/h 93 % 0 mm
04:32 25.9 °C 24.7 °C 1012.1 hPa SE 12.9 km/h 14.5 km/h 93 % 0 mm
04:37 26 °C 24.8 °C 1012.1 hPa SSE 4.8 km/h 14.5 km/h 93 % 0 mm
04:42 26 °C 24.8 °C 1011.7 hPa ESE 8 km/h 14.5 km/h 93 % 0 mm
04:47 26.1 °C 24.9 °C 1011.7 hPa SE 8 km/h 12.9 km/h 93 % 0 mm
04:52 26.1 °C 24.9 °C 1012.1 hPa SE 4.8 km/h 11.3 km/h 93 % 0 mm
04:57 26.1 °C 24.9 °C 1011.7 hPa SE 4.8 km/h 12.9 km/h 93 % 0 mm
05:02 26.1 °C 24.9 °C 1011.7 hPa SE 6.4 km/h 12.9 km/h 93 % 0 mm
05:07 26.1 °C 24.9 °C 1011.7 hPa SSE 3.2 km/h 14.5 km/h 93 % 0 mm
05:12 26.1 °C 24.9 °C 1011.7 hPa South 9.7 km/h 14.5 km/h 93 % 0 mm
05:17 26.1 °C 24.7 °C 1011.7 hPa SSE 6.4 km/h 16.1 km/h 92 % 0 mm
05:22 26.1 °C 24.7 °C 1011.7 hPa SSE 4.8 km/h 16.1 km/h 92 % 0 mm
05:27 26.1 °C 24.7 °C 1011.7 hPa SSE 4.8 km/h 16.1 km/h 92 % 0 mm
05:32 26 °C 24.6 °C 1011.7 hPa SE 8 km/h 14.5 km/h 92 % 0 mm
05:37 26 °C 24.6 °C 1011.7 hPa SE 4.8 km/h 14.5 km/h 92 % 0 mm
05:42 25.9 °C 24.3 °C 1011.7 hPa SSE 6.4 km/h 14.5 km/h 91 % 0 mm
05:47 25.9 °C 24.3 °C 1012.1 hPa SE 8 km/h 14.5 km/h 91 % 0 mm
05:52 25.9 °C 24.3 °C 1012.1 hPa SE 4.8 km/h 14.5 km/h 91 % 0 mm
05:58 25.9 °C 24.3 °C 1012.1 hPa SSW 6.4 km/h 11.3 km/h 91 % 0 mm
06:03 25.9 °C 24.3 °C 1012.1 hPa SSW 4.8 km/h 11.3 km/h 91 % 0 mm
06:08 26 °C 24.4 °C 1012.1 hPa ESE 6.4 km/h 11.3 km/h 91 % 0 mm
06:13 26 °C 24.2 °C 1012.1 hPa SE 6.4 km/h 11.3 km/h 90 % 0 mm
06:18 26 °C 24.2 °C 1012.4 hPa SE 4.8 km/h 11.3 km/h 90 % 0 mm
06:23 26 °C 24.2 °C 1012.1 hPa SE 3.2 km/h 11.3 km/h 90 % 0 mm
06:28 26 °C 24 °C 1012.1 hPa SE 3.2 km/h 11.3 km/h 89 % 0 mm
06:33 26.1 °C 24.1 °C 1012.4 hPa SSE 3.2 km/h 11.3 km/h 89 % 0 mm
06:38 26.1 °C 24.1 °C 1012.4 hPa South 1.6 km/h 11.3 km/h 89 % 0 mm
06:43 26.1 °C 24.1 °C 1012.4 hPa ESE 8 km/h 11.3 km/h 89 % 0 mm
06:48 26.1 °C 24.1 °C 1012.4 hPa East 6.4 km/h 9.7 km/h 89 % 0 mm
06:53 26.1 °C 24.1 °C 1012.4 hPa SE 3.2 km/h 9.7 km/h 89 % 0 mm
06:58 26.1 °C 24.1 °C 1012.4 hPa SE 4.8 km/h 9.7 km/h 89 % 0 mm
07:03 26.2 °C 24.2 °C 1012.8 hPa ESE 4.8 km/h 9.7 km/h 89 % 0 mm
07:08 26.2 °C 24.2 °C 1012.8 hPa SSE 1.6 km/h 8 km/h 89 % 0 mm
07:13 26.2 °C 24.2 °C 1012.4 hPa ENE 6.4 km/h 6.4 km/h 89 % 0 mm
07:18 26.2 °C 24.2 °C 1012.8 hPa SE 3.2 km/h 9.7 km/h 89 % 0 mm
07:23 26.2 °C 24.2 °C 1012.8 hPa ESE 4.8 km/h 9.7 km/h 89 % 0 mm
07:28 26.3 °C 24.3 °C 1012.8 hPa Calm   9.7 km/h 89 % 0 mm
07:33 26.3 °C 24.3 °C 1012.8 hPa SSE 1.6 km/h 9.7 km/h 89 % 0 mm
07:38 26.4 °C 24.6 °C 1012.8 hPa East 3.2 km/h 9.7 km/h 90 % 0 mm
07:43 26.4 °C 24.4 °C 1012.8 hPa Calm   9.7 km/h 89 % 0 mm
07:48 26.4 °C 24.4 °C 1013.1 hPa ESE 4.8 km/h 6.4 km/h 89 % 0 mm
07:53 26.5 °C 24.7 °C 1013.1 hPa ESE 3.2 km/h 6.4 km/h 90 % 0 mm
07:58 26.6 °C 24.8 °C 1013.1 hPa ESE 3.2 km/h 8 km/h 90 % 0 mm
08:03 26.7 °C 24.9 °C 1013.1 hPa ESE 3.2 km/h 8 km/h 90 % 0 mm
08:08 26.8 °C 25 °C 1013.4 hPa ESE 3.2 km/h 8 km/h 90 % 0 mm
08:13 27 °C 25.2 °C 1013.4 hPa SSE 4.8 km/h 6.4 km/h 90 % 0 mm
08:18 27.1 °C 25.3 °C 1013.4 hPa SSE 6.4 km/h 9.7 km/h 90 % 0 mm
08:24 27.2 °C 25.4 °C 1013.4 hPa ESE 1.6 km/h 12.9 km/h 90 % 0 mm
08:29 27.3 °C 25.3 °C 1013.4 hPa SSE 1.6 km/h 12.9 km/h 89 % 0 mm
08:34 27.4 °C 25.4 °C 1013.8 hPa SSE 4.8 km/h 12.9 km/h 89 % 0 mm
08:39 27.5 °C 25.5 °C 1013.8 hPa East 4.8 km/h 11.3 km/h 89 % 0 mm
08:44 27.6 °C 25.6 °C 1013.8 hPa SE 6.4 km/h 14.5 km/h 89 % 0 mm
08:49 27.7 °C 25.7 °C 1013.8 hPa SE 4.8 km/h 14.5 km/h 89 % 0 mm
08:54 27.8 °C 25.6 °C 1013.8 hPa ESE 11.3 km/h 14.5 km/h 88 % 0 mm
08:59 27.8 °C 25.6 °C 1013.8 hPa ESE 6.4 km/h 16.1 km/h 88 % 0 mm
09:04 27.9 °C 25.7 °C 1013.8 hPa SE 11.3 km/h 16.1 km/h 88 % 0 mm
09:09 27.9 °C 25.7 °C 1013.8 hPa SE 8 km/h 16.1 km/h 88 % 0 mm
09:14 28.1 °C 25.9 °C 1013.8 hPa SE 11.3 km/h 14.5 km/h 88 % 0 mm
09:19 28.2 °C 25.8 °C 1013.8 hPa ESE 6.4 km/h 14.5 km/h 87 % 0 mm
09:24 28.2 °C 25.6 °C 1013.8 hPa SE 11.3 km/h 14.5 km/h 86 % 0 mm
09:29 28.3 °C 25.7 °C 1013.8 hPa ESE 8 km/h 16.1 km/h 86 % 0 mm
09:34 28.5 °C 25.9 °C 1013.8 hPa SSE 9.7 km/h 16.1 km/h 86 % 0 mm
09:39 28.7 °C 25.7 °C 1013.8 hPa SE 11.3 km/h 19.3 km/h 84 % 0 mm
09:44 28.9 °C 25.5 °C 1013.8 hPa SE 4.8 km/h 19.3 km/h 82 % 0 mm
09:49 28.8 °C 25.4 °C 1013.8 hPa SE 14.5 km/h 22.5 km/h 82 % 0 mm
09:54 29 °C 25.8 °C 1013.8 hPa ESE 11.3 km/h 22.5 km/h 83 % 0 mm
09:59 29.4 °C 25.6 °C 1013.8 hPa SSE 11.3 km/h 22.5 km/h 80 % 0 mm
10:04 29.8 °C 25.8 °C 1013.8 hPa South 11.3 km/h 17.7 km/h 79 % 0 mm
10:09 29.8 °C 25.5 °C 1013.8 hPa SSW 9.7 km/h 19.3 km/h 78 % 0 mm
10:14 29.8 °C 25.5 °C 1013.8 hPa ESE 11.3 km/h 22.5 km/h 78 % 0 mm
10:19 29.9 °C 25.4 °C 1013.8 hPa SE 11.3 km/h 22.5 km/h 77 % 0 mm
10:24 30.1 °C 25.8 °C 1013.8 hPa ESE 6.4 km/h 22.5 km/h 78 % 0 mm
10:29 30.2 °C 25.5 °C 1013.8 hPa ESE 9.7 km/h 19.3 km/h 76 % 0 mm
10:34 29.9 °C 25.4 °C 1013.8 hPa ESE 11.3 km/h 19.3 km/h 77 % 0 mm
10:39 29.9 °C 25.4 °C 1013.8 hPa SSE 6.4 km/h 16.1 km/h 77 % 0 mm
10:44 29.9 °C 25.4 °C 1013.8 hPa SSE 6.4 km/h 17.7 km/h 77 % 0 mm
10:49 30.1 °C 25.2 °C 1013.8 hPa SE 17.7 km/h 19.3 km/h 75 % 0 mm
10:54 30.1 °C 25 °C 1013.4 hPa ESE 9.7 km/h 19.3 km/h 74 % 0 mm
10:59 30.4 °C 25.2 °C 1013.4 hPa ESE 14.5 km/h 19.3 km/h 74 % 0 mm
11:04 30.8 °C 24.9 °C 1013.4 hPa SE 16.1 km/h 17.7 km/h 71 % 0 mm
11:09 31.1 °C 25 °C 1013.4 hPa ESE 12.9 km/h 17.7 km/h 70 % 0 mm
11:14 31.3 °C 25.2 °C 1013.4 hPa SE 19.3 km/h 22.5 km/h 70 % 0 mm
11:19 31.2 °C 24.3 °C 1013.4 hPa ESE 11.3 km/h 22.5 km/h 67 % 0 mm
11:24 31.3 °C 25.2 °C 1013.4 hPa SSW 9.7 km/h 22.5 km/h 70 % 0 mm
11:29 31.1 °C 25 °C 1013.8 hPa East 16.1 km/h 22.5 km/h 70 % 0 mm
11:34 31.1 °C 25.2 °C 1013.8 hPa SE 8 km/h 22.5 km/h 71 % 0 mm
11:39 30.9 °C 24.3 °C 1013.8 hPa SE 11.3 km/h 19.3 km/h 68 % 0 mm
11:44 30.6 °C 24.5 °C 1013.4 hPa East 8 km/h 25.7 km/h 70 % 0 mm
11:45 30.5 °C 24.4 °C 1013.4 hPa SE 9.7 km/h 25.7 km/h 70 % 0 mm
11:50 30.3 °C 24.7 °C 1013.8 hPa East 6.4 km/h 25.7 km/h 72 % 0 mm
11:55 30.2 °C 25 °C 1013.4 hPa East 4.8 km/h 16.1 km/h 74 % 0 mm
12:00 30.7 °C 25.1 °C 1013.4 hPa SSE 17.7 km/h 17.7 km/h 72 % 0 mm
12:05 31.1 °C 25.2 °C 1013.4 hPa ESE 11.3 km/h 19.3 km/h 71 % 0 mm
12:10 31.4 °C 25 °C 1013.1 hPa SE 12.9 km/h 19.3 km/h 69 % 0 mm
12:15 31.8 °C 25.6 °C 1013.1 hPa ENE 6.4 km/h 19.3 km/h 70 % 0 mm
12:20 32.2 °C 25 °C 1013.1 hPa SE 4.8 km/h 19.3 km/h 66 % 0 mm
12:25 32.6 °C 25.4 °C 1013.1 hPa SSE 9.7 km/h 19.3 km/h 66 % 0 mm
12:30 32.6 °C 24.9 °C 1013.1 hPa South 14.5 km/h 20.9 km/h 64 % 0 mm
12:35 31.4 °C 25.7 °C 1013.8 hPa South 8 km/h 29 km/h 72 % 0.25 mm
12:40 29.7 °C 25.2 °C 1013.4 hPa SSE 1.6 km/h 29 km/h 77 % 1.52 mm
12:45 29 °C 25.2 °C 1013.4 hPa SE 4.8 km/h 29 km/h 80 % 2.03 mm
12:50 29 °C 26.2 °C 1013.4 hPa SSW 3.2 km/h 14.5 km/h 85 % 2.03 mm
12:55 29.4 °C 26.8 °C 1013.4 hPa SSW 6.4 km/h 16.1 km/h 86 % 2.03 mm
13:00 29.7 °C 26.7 °C 1013.4 hPa SSE 4.8 km/h 16.1 km/h 84 % 2.03 mm
13:04 29.8 °C 26.2 °C 1013.4 hPa SSE 8 km/h 16.1 km/h 81 % 2.03 mm
13:09 30.2 °C 27 °C 1013.1 hPa SSW 11.3 km/h 16.1 km/h 83 % 2.03 mm
13:14 30.6 °C 26.1 °C 1013.1 hPa SSE 4.8 km/h 14.5 km/h 77 % 2.03 mm
13:19 31.1 °C 26.1 °C 1013.1 hPa ESE 12.9 km/h 14.5 km/h 75 % 2.03 mm
13:24 31.3 °C 25.2 °C 1013.1 hPa ESE 14.5 km/h 16.1 km/h 70 % 2.03 mm
13:29 31.5 °C 25.1 °C 1013.1 hPa SSE 9.7 km/h 22.5 km/h 69 % 2.03 mm
13:34 31.8 °C 25.9 °C 1013.1 hPa East 8 km/h 22.5 km/h 71 % 2.03 mm
13:39 31.4 °C 25.7 °C 1013.4 hPa ESE 16.1 km/h 29 km/h 72 % 1.52 mm
13:44 30.4 °C 25.9 °C 1013.1 hPa ESE 6.4 km/h 29 km/h 77 % 0.51 mm
13:49 30.3 °C 25.8 °C 1013.1 hPa ESE 22.5 km/h 29 km/h 77 % 0 mm
13:54 30.6 °C 25.9 °C 1013.1 hPa East 6.4 km/h 25.7 km/h 76 % 0 mm
13:59 31.1 °C 26.4 °C 1012.8 hPa East 9.7 km/h 25.7 km/h 76 % 0 mm
14:04 31.2 °C 26 °C 1012.8 hPa East 11.3 km/h 25.7 km/h 74 % 0 mm
14:09 31.3 °C 25.9 °C 1012.8 hPa South 9.7 km/h 25.7 km/h 73 % 0 mm
14:14 31.4 °C 26 °C 1012.8 hPa ESE 11.3 km/h 25.7 km/h 73 % 0 mm
14:19 31.6 °C 26.2 °C 1012.8 hPa SE 4.8 km/h 24.1 km/h 73 % 0 mm
14:24 31.8 °C 26.4 °C 1012.4 hPa SE 6.4 km/h 24.1 km/h 73 % 0 mm
14:29 32.1 °C 25.9 °C 1012.4 hPa ENE 8 km/h 24.1 km/h 70 % 0 mm
14:39 31.9 °C 25.5 °C 1012.1 hPa East 19.3 km/h 24.1 km/h 69 % 0 mm
14:44 32.1 °C 25.7 °C 1012.1 hPa ESE 14.5 km/h 24.1 km/h 69 % 0 mm
14:49 32.4 °C 25.7 °C 1012.1 hPa ESE 8 km/h 27.4 km/h 68 % 0 mm
14:54 32.5 °C 25.6 °C 1012.1 hPa ESE 11.3 km/h 27.4 km/h 67 % 0 mm
14:59 32.6 °C 25.7 °C 1012.1 hPa ESE 14.5 km/h 27.4 km/h 67 % 0 mm
15:04 32.5 °C 25.6 °C 1012.1 hPa SE 8 km/h 24.1 km/h 67 % 0 mm
15:09 32.4 °C 25.5 °C 1011.7 hPa SE 6.4 km/h 24.1 km/h 67 % 0 mm
15:14 32.5 °C 25.6 °C 1011.7 hPa ESE 20.9 km/h 25.7 km/h 67 % 0 mm
15:19 32.6 °C 24.6 °C 1012.1 hPa ESE 12.9 km/h 25.7 km/h 63 % 0 mm
15:24 32.7 °C 24.2 °C 1012.1 hPa East 14.5 km/h 25.7 km/h 61 % 0 mm
15:29 32.4 °C 24.2 °C 1011.7 hPa SSE 16.1 km/h 22.5 km/h 62 % 0 mm
15:34 32.2 °C 24 °C 1011.7 hPa South 11.3 km/h 24.1 km/h 62 % 0 mm
15:39 32.2 °C 24 °C 1011.7 hPa SE 14.5 km/h 24.1 km/h 62 % 0 mm
15:44 32.4 °C 23.6 °C 1011.7 hPa SE 16.1 km/h 24.1 km/h 60 % 0 mm
15:49 32.7 °C 23.6 °C 1011.7 hPa SSW 11.3 km/h 25.7 km/h 59 % 0 mm
15:54 32.5 °C 23.4 °C 1011.7 hPa SSE 11.3 km/h 25.7 km/h 59 % 0 mm
15:59 32.2 °C 23.4 °C 1011.7 hPa East 19.3 km/h 25.7 km/h 60 % 0 mm
16:04 31.9 °C 23.4 °C 1011.7 hPa SE 11.3 km/h 22.5 km/h 61 % 0 mm
16:09 31.9 °C 23.4 °C 1011.7 hPa ESE 11.3 km/h 22.5 km/h 61 % 0 mm
16:14 32.1 °C 23.9 °C 1011.7 hPa SSE 14.5 km/h 22.5 km/h 62 % 0 mm
16:19 32.4 °C 23.9 °C 1011.7 hPa ESE 11.3 km/h 20.9 km/h 61 % 0 mm
16:24 32.3 °C 23.8 °C 1011.7 hPa SE 8 km/h 22.5 km/h 61 % 0 mm
16:29 32.3 °C 23.5 °C 1011.7 hPa East 16.1 km/h 22.5 km/h 60 % 0 mm
16:34 32.5 °C 23.7 °C 1011.4 hPa ESE 16.1 km/h 24.1 km/h 60 % 0 mm
16:39 32.7 °C 24.2 °C 1011.4 hPa SE 11.3 km/h 24.1 km/h 61 % 0 mm
16:45 32.8 °C 23.4 °C 1011.7 hPa SW 11.3 km/h 24.1 km/h 58 % 0 mm
16:49 32.8 °C 24 °C 1011.4 hPa ESE 19.3 km/h 29 km/h 60 % 0 mm
16:54 32.8 °C 23.7 °C 1011.4 hPa SE 8 km/h 29 km/h 59 % 0 mm
16:59 32.8 °C 24 °C 1011.4 hPa ESE 12.9 km/h 29 km/h 60 % 0 mm
17:04 32.8 °C 24.3 °C 1011.4 hPa SSE 12.9 km/h 22.5 km/h 61 % 0 mm
17:09 32.8 °C 24.3 °C 1011.4 hPa ESE 12.9 km/h 24.1 km/h 61 % 0 mm
17:14 32.8 °C 24 °C 1011.4 hPa SE 16.1 km/h 24.1 km/h 60 % 0 mm
17:19 32.7 °C 23.6 °C 1011.4 hPa SW 19.3 km/h 24.1 km/h 59 % 0 mm
17:25 32.6 °C 23.8 °C 1011.4 hPa ESE 16.1 km/h 22.5 km/h 60 % 0 mm
17:29 32.6 °C 23.8 °C 1011.4 hPa SE 12.9 km/h 22.5 km/h 60 % 0 mm
17:35 32.7 °C 23.6 °C 1011.4 hPa South 8 km/h 22.5 km/h 59 % 0 mm
17:40 32.6 °C 23.5 °C 1011.4 hPa SE 14.5 km/h 22.5 km/h 59 % 0 mm
17:45 32.7 °C 23.9 °C 1011.4 hPa ESE 8 km/h 22.5 km/h 60 % 0 mm
17:47 32.8 °C 23.4 °C 1011.1 hPa SE 8 km/h 22.5 km/h 58 % 0 mm
17:52 32.7 °C 23.4 °C 1011.1 hPa ESE 14.5 km/h 22.5 km/h 58 % 0 mm
18:02 32.4 °C 23.9 °C 1011.1 hPa ESE 6.4 km/h 24.1 km/h 61 % 0 mm
18:07 32.2 °C 24 °C 1011.1 hPa SSE 17.7 km/h 24.1 km/h 62 % 0 mm
18:12 32.3 °C 24.1 °C 1011.1 hPa East 11.3 km/h 22.5 km/h 62 % 0 mm
18:17 32.3 °C 24.1 °C 1011.1 hPa SSE 11.3 km/h 22.5 km/h 62 % 0 mm
18:22 32.3 °C 24.4 °C 1011.1 hPa SE 6.4 km/h 25.7 km/h 63 % 0 mm
18:27 32.2 °C 24 °C 1011.1 hPa SSE 16.1 km/h 25.7 km/h 62 % 0 mm
18:32 32 °C 24.1 °C 1011.1 hPa ESE 16.1 km/h 27.4 km/h 63 % 0 mm
18:37 32.1 °C 24.2 °C 1011.1 hPa ESE 14.5 km/h 27.4 km/h 63 % 0 mm
18:42 31.9 °C 24.2 °C 1011.1 hPa South 14.5 km/h 27.4 km/h 64 % 0 mm
18:47 31.7 °C 25.3 °C 1011.1 hPa SE 8 km/h 22.5 km/h 69 % 0 mm
18:53 31.4 °C 25.3 °C 1011.1 hPa SE 1.6 km/h 22.5 km/h 70 % 0 mm
18:58 31.2 °C 25.3 °C 1011.1 hPa SSW 6.4 km/h 22.5 km/h 71 % 0 mm
19:03 31 °C 25.4 °C 1011.1 hPa SE 8 km/h 24.1 km/h 72 % 0 mm
19:08 30.8 °C 25.4 °C 1011.1 hPa SE 8 km/h 24.1 km/h 73 % 0 mm
19:13 30.7 °C 25.3 °C 1011.1 hPa SSE 8 km/h 24.1 km/h 73 % 0 mm
19:18 30.5 °C 24.9 °C 1011.1 hPa SSE 6.4 km/h 17.7 km/h 72 % 0 mm
19:20 30.4 °C 25 °C 1011.1 hPa East 11.3 km/h 17.7 km/h 73 % 0 mm
19:25 30.3 °C 24.9 °C 1011.4 hPa SSE 9.7 km/h 22.5 km/h 73 % 0 mm
19:30 30.2 °C 25.3 °C 1011.4 hPa ESE 9.7 km/h 22.5 km/h 75 % 0 mm
19:35 30.1 °C 25.4 °C 1011.4 hPa South 4.8 km/h 22.5 km/h 76 % 0 mm
19:40 30 °C 25.5 °C 1011.4 hPa East 3.2 km/h 19.3 km/h 77 % 0 mm
19:45 30 °C 25.5 °C 1011.4 hPa SE 4.8 km/h 12.9 km/h 77 % 0 mm
19:50 29.9 °C 24.8 °C 1011.4 hPa SSE 8 km/h 17.7 km/h 74 % 0 mm
19:55 29.9 °C 24.5 °C 1011.4 hPa SE 9.7 km/h 17.7 km/h 73 % 0 mm
20:00 29.9 °C 24.5 °C 1011.7 hPa ESE 11.3 km/h 17.7 km/h 73 % 0 mm
20:05 29.9 °C 24.5 °C 1011.4 hPa SE 6.4 km/h 16.1 km/h 73 % 0 mm
20:10 29.8 °C 24.4 °C 1011.4 hPa SE 9.7 km/h 20.9 km/h 73 % 0 mm
20:15 29.7 °C 24.3 °C 1011.4 hPa SSW 9.7 km/h 22.5 km/h 73 % 0 mm
20:20 29.7 °C 24.3 °C 1011.4 hPa SE 12.9 km/h 22.5 km/h 73 % 0 mm
20:25 29.6 °C 24.5 °C 1011.4 hPa ESE 8 km/h 22.5 km/h 74 % 0 mm
20:30 29.4 °C 24.3 °C 1011.4 hPa SSE 8 km/h 19.3 km/h 74 % 0 mm
20:35 29.3 °C 24.4 °C 1011.4 hPa SE 9.7 km/h 19.3 km/h 75 % 0 mm
20:40 29.3 °C 24.6 °C 1011.4 hPa ESE 8 km/h 14.5 km/h 76 % 0 mm
20:45 29.2 °C 24.7 °C 1011.7 hPa SE 14.5 km/h 14.5 km/h 77 % 0 mm
20:50 29.2 °C 25 °C 1011.7 hPa SSE 11.3 km/h 16.1 km/h 78 % 0 mm
20:55 29.1 °C 24.7 °C 1011.7 hPa ESE 12.9 km/h 19.3 km/h 77 % 0 mm
21:00 29 °C 24.6 °C 1011.7 hPa SE 11.3 km/h 22.5 km/h 77 % 0 mm
21:05 28.9 °C 24.7 °C 1011.7 hPa SE 17.7 km/h 22.5 km/h 78 % 0 mm
21:10 28.9 °C 24.7 °C 1011.7 hPa SE 4.8 km/h 22.5 km/h 78 % 0 mm
21:15 28.8 °C 24.8 °C 1012.1 hPa East 14.5 km/h 22.5 km/h 79 % 0 mm
21:20 28.7 °C 24.7 °C 1012.1 hPa East 14.5 km/h 22.5 km/h 79 % 0 mm
21:25 28.7 °C 24.7 °C 1012.1 hPa South 9.7 km/h 22.5 km/h 79 % 0 mm
21:30 28.6 °C 24.8 °C 1012.1 hPa South 4.8 km/h 20.9 km/h 80 % 0 mm
21:35 28.6 °C 24.8 °C 1012.1 hPa SE 12.9 km/h 20.9 km/h 80 % 0 mm
21:40 28.5 °C 24.9 °C 1012.1 hPa SSE 9.7 km/h 20.9 km/h 81 % 0 mm
21:45 28.4 °C 24.8 °C 1012.4 hPa SE 4.8 km/h 20.9 km/h 81 % 0 mm
21:50 28.4 °C 24.8 °C 1012.4 hPa East 8 km/h 17.7 km/h 81 % 0 mm
21:55 28.4 °C 25 °C 1012.4 hPa SE 3.2 km/h 14.5 km/h 82 % 0 mm
22:01 28.3 °C 24.9 °C 1012.8 hPa SSE 8 km/h 14.5 km/h 82 % 0 mm
22:06 28.3 °C 25.1 °C 1012.4 hPa ESE 14.5 km/h 17.7 km/h 83 % 0 mm
22:11 28.2 °C 25 °C 1012.8 hPa SE 4.8 km/h 17.7 km/h 83 % 0 mm
22:16 28.2 °C 25 °C 1012.8 hPa ESE 4.8 km/h 17.7 km/h 83 % 0 mm
22:21 28.1 °C 25.1 °C 1012.8 hPa SE 4.8 km/h 14.5 km/h 84 % 0 mm
22:26 28.1 °C 25.1 °C 1012.8 hPa South 4.8 km/h 11.3 km/h 84 % 0 mm
22:31 28 °C 25 °C 1012.8 hPa SE 8 km/h 11.3 km/h 84 % 0 mm
22:36 27.9 °C 25.1 °C 1012.8 hPa ESE 8 km/h 12.9 km/h 85 % 0 mm
22:41 27.9 °C 25.1 °C 1012.8 hPa SE 8 km/h 12.9 km/h 85 % 0 mm
22:46 27.9 °C 25.1 °C 1012.8 hPa SE 3.2 km/h 12.9 km/h 85 % 0 mm
22:51 27.9 °C 25.1 °C 1012.8 hPa SE 11.3 km/h 12.9 km/h 85 % 0 mm
22:56 27.8 °C 25.2 °C 1012.8 hPa East 4.8 km/h 14.5 km/h 86 % 0 mm
23:01 27.8 °C 25.2 °C 1013.1 hPa SE 6.4 km/h 14.5 km/h 86 % 0 mm
23:06 27.8 °C 25.2 °C 1012.8 hPa SSE 3.2 km/h 14.5 km/h 86 % 0 mm
23:11 27.8 °C 25.2 °C 1012.8 hPa SE 6.4 km/h 12.9 km/h 86 % 0 mm
23:16 27.8 °C 25.2 °C 1012.8 hPa SE 4.8 km/h 12.9 km/h 86 % 0 mm
23:21 27.7 °C 25.1 °C 1012.8 hPa SSE 6.4 km/h 11.3 km/h 86 % 0 mm
23:26 27.7 °C 25.3 °C 1013.1 hPa SE 8 km/h 12.9 km/h 87 % 0 mm
23:31 27.7 °C 25.3 °C 1013.1 hPa ESE 3.2 km/h 12.9 km/h 87 % 0 mm
23:36 27.7 °C 25.3 °C 1013.1 hPa East 9.7 km/h 12.9 km/h 87 % 0 mm
23:41 27.7 °C 25.3 °C 1013.1 hPa SE 6.4 km/h 16.1 km/h 87 % 0 mm
23:46 27.7 °C 25.3 °C 1013.1 hPa ESE 6.4 km/h 16.1 km/h 87 % 0 mm
23:51 27.7 °C 25.3 °C 1013.1 hPa SSE 3.2 km/h 16.1 km/h 87 % 0 mm
23:56 27.7 °C 25.3 °C 1013.1 hPa South 4.8 km/h 12.9 km/h 87 % 0 mm
Spring, Texas: Villages of Bridgestone
Compliments of Weather Underground - 3 mb

Script developed by  Jim McMurry - jmcmurry@mwt.net Adapted for the template by  Wim van der Kuil - Leuven-Template.eu

You find our weather info also at:

UK Metoffice

WeatherCloud

Weather Underground

Mid-South Weather Network

AWEKAS

Citizen Weather Observer Program (CWOP)

HAMweather, WeatherForYou, PWS Weather

Equipment we use:

Weather-station
Davis Vantage Vue

Weather-program
Meteohub

Weather-server
Debian 7.9 x86 (Guest)

Provider
DreamHost

Davis Vantage Vue

Meteohub

Debian 7.9 x86 (Guest)

DreamHost